Terminal Aerodrome Forecast
Issued by NWS

Home | Current Version | Previous Version | Graphics & Text | Print | Product List | Glossary On
Versions: 1 2 3 4 5 6 7 8 9 10 11 12 13 14
631
FTUS43 KIWX 182219 AAB
TAFSBN
TAF AMD
KSBN 182219Z 1822/1918 35018G28KT P6SM -SHRA OVC015
     FM190300 32020G28KT P6SM VCSH OVC020
     FM191100 30013G21KT P6SM OVC025
     FM191600 29015G23KT P6SM OVC020=

USA.gov is the U.S. government's official web portal to all federal, state and local government web resources and services.